Time;durP1;ratioP1;P1;durP2;ratioP2;P2;SDS_P1;SDS_P2;PMS_P1;PMS_P2;Temp;Humidity;BMP_temperature;BMP_pressure;BME280_temperature;BME280_humidity;BME280_pressure;Samples;Min_cycle;Max_cycle;Signal;HPM_P1;HPM_P2
2022/02/13 00:00:24;;;;;;;24.20;15.97;;;-1.00;99.90;;;;;;5092407;28;20441;-65
2022/02/13 00:02:51;;;;;;;24.90;15.80;;;-1.00;99.90;;;;;;5090378;28;20439;-65
2022/02/13 00:05:18;;;;;;;26.83;14.93;;;-1.00;99.90;;;;;;5091444;28;20509;-65
2022/02/13 00:07:45;;;;;;;19.07;14.57;;;-1.10;99.90;;;;;;5087619;28;20449;-66
2022/02/13 00:10:14;;;;;;;19.50;15.03;;;-1.10;99.90;;;;;;5085415;28;20481;-65
2022/02/13 00:12:41;;;;;;;19.63;14.80;;;-1.10;99.90;;;;;;5080862;28;21086;-64
2022/02/13 00:15:09;;;;;;;18.20;13.80;;;-1.20;99.90;;;;;;5094426;28;20458;-66
2022/02/13 00:17:37;;;;;;;17.87;14.63;;;-1.30;99.90;;;;;;5088874;28;20530;-65
2022/02/13 00:20:05;;;;;;;19.47;13.73;;;-1.20;99.90;;;;;;5086964;28;20513;-64
2022/02/13 00:22:32;;;;;;;20.27;13.83;;;-1.20;99.90;;;;;;5094545;28;20491;-65
2022/02/13 00:24:59;;;;;;;22.73;15.63;;;-1.20;99.90;;;;;;5073969;28;20455;-66
2022/02/13 00:27:26;;;;;;;21.80;15.43;;;-1.10;99.90;;;;;;5093290;28;20855;-65
2022/02/13 00:29:53;;;;;;;19.67;15.00;;;-1.10;99.90;;;;;;5086112;28;20471;-64
2022/02/13 00:32:21;;;;;;;22.73;14.63;;;-1.00;99.90;;;;;;5079579;28;20482;-64
2022/02/13 00:34:49;;;;;;;18.73;13.77;;;-0.90;99.90;;;;;;5086367;28;20461;-65
2022/02/13 00:37:16;;;;;;;16.60;13.17;;;-0.70;99.90;;;;;;5092161;28;20553;-66
2022/02/13 00:39:43;;;;;;;19.40;14.57;;;-0.60;99.90;;;;;;5085975;28;20480;-64
2022/02/13 00:42:10;;;;;;;17.17;13.33;;;-0.60;99.90;;;;;;5091688;28;20442;-64
2022/02/13 00:44:37;;;;;;;16.03;13.00;;;-0.50;99.90;;;;;;5092636;28;20456;-65
2022/02/13 00:47:05;;;;;;;19.07;13.93;;;-0.60;99.90;;;;;;5091982;28;20449;-64
2022/02/13 00:49:32;;;;;;;17.00;12.70;;;-0.50;99.90;;;;;;5092208;28;20477;-65
2022/02/13 00:52:00;;;;;;;18.83;13.20;;;-0.50;99.90;;;;;;5084881;28;20482;-65
2022/02/13 00:54:27;;;;;;;17.43;13.90;;;-0.40;99.90;;;;;;5085555;28;20508;-64
2022/02/13 00:56:54;;;;;;;21.07;15.27;;;-0.50;99.90;;;;;;5092216;28;20977;-65
2022/02/13 00:59:21;;;;;;;24.43;16.50;;;-0.50;99.90;;;;;;5082415;28;20475;-63
2022/02/13 01:01:48;;;;;;;17.17;13.80;;;-0.60;99.90;;;;;;5079494;28;20446;-65
2022/02/13 01:04:15;;;;;;;22.87;14.87;;;-0.60;99.90;;;;;;5091781;28;20481;-64
2022/02/13 01:06:42;;;;;;;19.97;14.20;;;-0.60;99.90;;;;;;5093601;28;21165;-65
2022/02/13 01:09:10;;;;;;;17.97;14.07;;;-0.60;99.90;;;;;;5092237;28;20489;-65
2022/02/13 01:11:37;;;;;;;15.03;12.33;;;-0.70;99.90;;;;;;5094641;28;20478;-65
2022/02/13 01:14:04;;;;;;;16.60;12.80;;;-0.80;99.90;;;;;;5092987;28;20565;-65
2022/02/13 01:16:31;;;;;;;16.80;13.03;;;-0.80;99.90;;;;;;5093155;28;20451;-65
2022/02/13 01:18:59;;;;;;;17.40;13.57;;;-0.70;99.90;;;;;;5092098;28;21116;-65
2022/02/13 01:21:26;;;;;;;16.23;13.10;;;-0.60;99.90;;;;;;5093512;28;20454;-65
2022/02/13 01:23:53;;;;;;;15.57;11.77;;;-0.60;99.90;;;;;;5084767;28;20451;-65
2022/02/13 01:26:21;;;;;;;16.43;13.50;;;-0.50;99.90;;;;;;5090723;28;20526;-64
2022/02/13 01:28:48;;;;;;;15.63;12.23;;;-0.50;99.90;;;;;;5087173;28;20463;-64
2022/02/13 01:31:15;;;;;;;14.30;10.67;;;-0.40;99.90;;;;;;5074966;28;20451;-64
2022/02/13 01:33:42;;;;;;;16.27;11.33;;;-0.40;99.90;;;;;;5070412;28;20458;-64
2022/02/13 01:36:11;;;;;;;18.27;12.23;;;-0.40;99.90;;;;;;5069773;28;20461;-69
2022/02/13 01:38:38;;;;;;;15.57;11.97;;;-0.40;99.90;;;;;;5070233;28;20566;-64
2022/02/13 01:41:05;;;;;;;14.80;12.00;;;-0.40;99.90;;;;;;5073228;28;20963;-64
2022/02/13 01:43:34;;;;;;;14.83;12.00;;;-0.50;99.90;;;;;;5090672;28;20450;-64
2022/02/13 01:46:01;;;;;;;14.60;12.17;;;-0.60;99.90;;;;;;5090059;28;20461;-64
2022/02/13 01:48:29;;;;;;;14.77;12.03;;;-0.60;99.90;;;;;;5090469;28;20470;-65
2022/02/13 01:50:56;;;;;;;14.27;11.83;;;-0.60;99.90;;;;;;5090464;28;20538;-65
2022/02/13 01:53:24;;;;;;;12.83;11.30;;;-0.60;99.90;;;;;;5090761;28;20486;-64
2022/02/13 01:55:51;;;;;;;15.30;11.90;;;-0.70;99.90;;;;;;5090426;28;20489;-64
2022/02/13 01:58:18;;;;;;;14.73;11.67;;;-0.70;99.90;;;;;;5086321;28;21142;-66
2022/02/13 02:00:46;;;;;;;18.83;12.83;;;-0.70;99.90;;;;;;5080784;28;20443;-64
2022/02/13 02:03:13;;;;;;;13.73;11.60;;;-0.80;99.90;;;;;;5069588;28;20447;-64
2022/02/13 02:05:42;;;;;;;18.70;13.60;;;-0.80;99.90;;;;;;5070142;28;20450;-65
2022/02/13 02:08:09;;;;;;;19.13;12.63;;;-0.90;99.90;;;;;;5069918;28;20671;-64
2022/02/13 02:10:37;;;;;;;15.93;12.33;;;-0.90;99.90;;;;;;5070600;28;20455;-64
2022/02/13 02:13:04;;;;;;;16.43;12.50;;;-0.90;99.90;;;;;;5069924;28;20479;-65
2022/02/13 02:15:31;;;;;;;15.40;11.93;;;-0.90;99.90;;;;;;5070953;28;20462;-66
2022/02/13 02:17:59;;;;;;;14.83;11.63;;;-0.90;99.90;;;;;;5087039;28;20458;-64
2022/02/13 02:20:29;;;;;;;15.27;12.23;;;-1.00;99.90;;;;;;5090614;28;21140;-64
2022/02/13 02:22:58;;;;;;;15.10;12.50;;;-1.00;99.90;;;;;;5090083;28;20450;-66
2022/02/13 02:25:25;;;;;;;14.57;11.47;;;-1.00;99.90;;;;;;5090370;28;20452;-64
2022/02/13 02:27:52;;;;;;;15.23;11.87;;;-1.00;99.90;;;;;;5089694;28;20446;-64
2022/02/13 02:30:19;;;;;;;15.80;12.33;;;-1.10;99.90;;;;;;5079960;28;20630;-65
2022/02/13 02:32:46;;;;;;;16.20;12.27;;;-1.20;99.90;;;;;;5070707;28;20492;-65
2022/02/13 02:35:12;;;;;;;14.43;11.80;;;-1.20;99.90;;;;;;5070448;28;20450;-65
2022/02/13 02:37:39;;;;;;;15.33;11.87;;;-1.20;99.90;;;;;;5080597;28;20458;-66
2022/02/13 02:40:09;;;;;;;14.83;11.57;;;-1.20;99.90;;;;;;5081210;28;20465;-64
2022/02/13 02:42:36;;;;;;;15.90;11.93;;;-1.20;99.90;;;;;;5076325;28;20537;-65
2022/02/13 02:45:03;;;;;;;14.07;11.43;;;-1.30;99.90;;;;;;5068574;28;21067;-64
2022/02/13 02:47:30;;;;;;;12.80;10.40;;;-1.20;99.90;;;;;;5069591;28;20527;-65
2022/02/13 02:49:56;;;;;;;11.50;9.50;;;-1.20;99.90;;;;;;5069386;28;20481;-65
2022/02/13 02:52:23;;;;;;;14.90;10.83;;;-1.30;99.90;;;;;;5070190;28;20483;-64
2022/02/13 02:54:50;;;;;;;13.23;10.10;;;-1.30;99.90;;;;;;5079686;28;20466;-63
2022/02/13 02:57:18;;;;;;;15.30;11.17;;;-1.40;99.90;;;;;;5089580;28;20454;-64
2022/02/13 02:59:45;;;;;;;16.83;11.90;;;-1.30;99.90;;;;;;5084486;28;20866;-65
2022/02/13 03:02:12;;;;;;;15.60;11.37;;;-1.40;99.90;;;;;;5071868;28;20455;-64
2022/02/13 03:04:38;;;;;;;15.13;11.13;;;-1.40;99.90;;;;;;5069878;28;20913;-66
2022/02/13 03:07:05;;;;;;;14.10;11.40;;;-1.40;99.90;;;;;;5073340;28;20523;-64
2022/02/13 03:09:32;;;;;;;16.83;11.53;;;-1.40;99.90;;;;;;5090406;28;20894;-64
2022/02/13 03:11:59;;;;;;;13.57;11.07;;;-1.50;99.90;;;;;;5093810;28;20485;-69
2022/02/13 03:14:27;;;;;;;16.50;11.10;;;-1.50;99.90;;;;;;5094934;28;20448;-64
2022/02/13 03:16:54;;;;;;;12.50;10.77;;;-1.40;99.90;;;;;;5096238;28;20456;-64
2022/02/13 03:19:21;;;;;;;12.80;10.37;;;-1.30;99.90;;;;;;5095396;28;20464;-65
2022/02/13 03:21:48;;;;;;;14.13;10.60;;;-1.30;99.90;;;;;;5095975;28;20449;-64
2022/02/13 03:24:15;;;;;;;15.27;10.77;;;-1.30;99.90;;;;;;5096014;28;20453;-65
2022/02/13 03:26:41;;;;;;;14.23;9.80;;;-1.30;99.90;;;;;;5095807;28;20446;-65
2022/02/13 03:29:08;;;;;;;12.80;9.90;;;-1.20;99.90;;;;;;5095680;28;20494;-64
2022/02/13 03:31:36;;;;;;;12.43;10.80;;;-1.10;99.90;;;;;;5096907;28;20446;-64
2022/02/13 03:34:03;;;;;;;15.00;10.73;;;-1.10;99.90;;;;;;5096012;28;20456;-64
2022/02/13 03:36:30;;;;;;;11.97;9.80;;;-1.10;99.90;;;;;;5095622;28;20830;-64
2022/02/13 03:38:57;;;;;;;14.23;10.43;;;-1.20;99.90;;;;;;5095163;28;20466;-65
2022/02/13 03:41:24;;;;;;;15.10;11.80;;;-1.20;99.90;;;;;;5095246;28;20482;-65
2022/02/13 03:43:51;;;;;;;17.50;11.93;;;-1.20;99.90;;;;;;5095393;28;20446;-64
2022/02/13 03:46:18;;;;;;;13.77;11.30;;;-1.20;99.90;;;;;;5095257;28;20445;-64
2022/02/13 03:48:46;;;;;;;15.00;12.20;;;-1.20;99.90;;;;;;5095175;28;20533;-64
2022/02/13 03:51:13;;;;;;;16.67;11.87;;;-1.20;99.90;;;;;;5095461;28;20446;-62
2022/02/13 03:53:40;;;;;;;16.20;11.63;;;-1.30;99.90;;;;;;5095661;28;20564;-64
2022/02/13 03:56:07;;;;;;;16.23;11.73;;;-1.30;99.90;;;;;;5095386;28;20485;-65
2022/02/13 03:58:34;;;;;;;14.53;11.20;;;-1.40;99.90;;;;;;5095378;28;20462;-64
2022/02/13 04:01:00;;;;;;;12.70;10.37;;;-1.30;99.90;;;;;;5095712;28;20526;-64
2022/02/13 04:03:28;;;;;;;12.80;10.60;;;-1.40;99.90;;;;;;5095547;28;20814;-64
2022/02/13 04:05:56;;;;;;;14.77;11.40;;;-1.30;99.90;;;;;;5095609;28;20479;-64
2022/02/13 04:08:23;;;;;;;13.37;10.50;;;-1.30;99.90;;;;;;5095632;28;20477;-64
2022/02/13 04:10:50;;;;;;;15.87;12.40;;;-1.40;99.90;;;;;;5096052;28;20450;-65
2022/02/13 04:13:17;;;;;;;13.07;10.53;;;-1.40;99.90;;;;;;5094992;28;20507;-64
2022/02/13 04:15:44;;;;;;;14.20;11.60;;;-1.40;99.90;;;;;;5095620;28;20457;-64
2022/02/13 04:18:12;;;;;;;18.70;11.43;;;-1.30;99.90;;;;;;5094385;28;20450;-64
2022/02/13 04:20:40;;;;;;;17.73;12.70;;;-1.30;99.90;;;;;;5095494;28;20446;-63
2022/02/13 04:23:08;;;;;;;16.20;11.70;;;-1.10;99.90;;;;;;5095447;28;20969;-65
2022/02/13 04:25:35;;;;;;;19.63;13.27;;;-1.10;99.90;;;;;;5095226;28;20456;-65
2022/02/13 04:28:02;;;;;;;16.37;12.93;;;-1.00;99.90;;;;;;5093924;28;20438;-65
2022/02/13 04:30:29;;;;;;;16.67;12.57;;;-0.90;99.90;;;;;;5094287;28;20457;-64
2022/02/13 04:32:56;;;;;;;17.20;12.73;;;-0.70;99.90;;;;;;5094198;28;20485;-64
2022/02/13 04:35:23;;;;;;;14.30;12.30;;;-0.60;99.90;;;;;;5094375;28;20446;-65
2022/02/13 04:37:51;;;;;;;16.37;12.33;;;-0.50;99.90;;;;;;5094104;28;20880;-66
2022/02/13 04:40:20;;;;;;;18.13;12.73;;;-0.40;99.90;;;;;;5094492;28;20542;-64
2022/02/13 04:42:47;;;;;;;15.70;11.87;;;-0.30;99.90;;;;;;5094083;28;20445;-64
2022/02/13 04:45:14;;;;;;;15.70;13.00;;;-0.40;99.90;;;;;;5094037;28;20449;-64
2022/02/13 04:47:41;;;;;;;14.00;11.73;;;-0.40;99.90;;;;;;5093880;28;20446;-65
2022/02/13 04:50:09;;;;;;;13.40;11.37;;;-0.50;99.90;;;;;;5093954;28;20466;-64
2022/02/13 04:52:36;;;;;;;15.97;11.80;;;-0.60;99.90;;;;;;5094214;28;20478;-65
2022/02/13 04:55:04;;;;;;;15.10;12.23;;;-0.70;99.90;;;;;;5094375;28;20920;-65
2022/02/13 04:57:32;;;;;;;14.17;11.33;;;-0.70;99.90;;;;;;5093844;28;20452;-64
2022/02/13 04:59:59;;;;;;;15.70;12.40;;;-0.80;99.90;;;;;;5093917;28;20565;-64
2022/02/13 05:02:26;;;;;;;16.60;12.60;;;-0.80;99.90;;;;;;5094885;28;20506;-64
2022/02/13 05:04:53;;;;;;;14.07;12.00;;;-0.80;99.90;;;;;;5095808;28;20502;-65
2022/02/13 05:07:20;;;;;;;15.23;11.87;;;-0.80;99.90;;;;;;5094650;28;20541;-65
2022/02/13 05:09:47;;;;;;;19.63;13.77;;;-0.90;99.90;;;;;;5095566;28;20458;-65
2022/02/13 05:12:14;;;;;;;16.20;12.60;;;-0.90;99.90;;;;;;5094642;28;20453;-66
2022/02/13 05:14:42;;;;;;;17.13;11.57;;;-0.90;99.90;;;;;;5094209;28;20446;-65
2022/02/13 05:17:09;;;;;;;19.57;14.20;;;-0.80;99.90;;;;;;5094820;28;20450;-65
2022/02/13 05:19:36;;;;;;;16.20;13.03;;;-0.70;99.90;;;;;;5094632;28;20549;-64
2022/02/13 05:22:03;;;;;;;19.73;12.47;;;-0.60;99.90;;;;;;5094322;28;20477;-65
2022/02/13 05:24:34;;;;;;;18.33;13.10;;;-0.60;99.90;;;;;;5093913;28;21083;-65
2022/02/13 05:27:01;;;;;;;18.60;12.90;;;-0.50;99.90;;;;;;5094625;28;20450;-65
2022/02/13 05:29:28;;;;;;;15.90;12.70;;;-0.50;99.90;;;;;;5094244;28;20466;-64
2022/02/13 05:31:56;;;;;;;17.20;14.30;;;-0.40;99.90;;;;;;5094560;28;20450;-64
2022/02/13 05:34:23;;;;;;;15.53;12.47;;;-0.40;99.90;;;;;;5094794;28;20488;-65
2022/02/13 05:36:50;;;;;;;14.90;12.03;;;-0.40;99.90;;;;;;5093722;28;20537;-65
2022/02/13 05:39:17;;;;;;;15.37;12.10;;;-0.40;99.90;;;;;;5093147;28;21060;-64
2022/02/13 05:41:45;;;;;;;19.30;13.70;;;-0.50;99.90;;;;;;5093754;28;20534;-64
2022/02/13 05:44:12;;;;;;;14.67;12.70;;;-0.50;99.90;;;;;;5093202;28;20442;-65
2022/02/13 05:46:39;;;;;;;17.40;12.57;;;-0.60;99.90;;;;;;5093382;28;20514;-64
2022/02/13 05:49:07;;;;;;;16.33;12.53;;;-0.60;99.90;;;;;;5092742;28;20995;-64
2022/02/13 05:51:34;;;;;;;15.10;12.70;;;-0.70;99.90;;;;;;5093567;28;20461;-64
2022/02/13 05:54:00;;;;;;;13.60;11.50;;;-0.70;99.90;;;;;;5092502;28;20473;-64
2022/02/13 05:56:27;;;;;;;15.70;11.87;;;-0.70;99.90;;;;;;5093858;28;20442;-64
2022/02/13 05:58:55;;;;;;;14.80;12.70;;;-0.80;99.90;;;;;;5093484;28;20500;-64
2022/02/13 06:01:22;;;;;;;16.33;11.40;;;-0.80;99.90;;;;;;5093814;28;20973;-64
2022/02/13 06:03:49;;;;;;;14.43;11.83;;;-0.90;99.90;;;;;;5093706;28;20952;-64
2022/02/13 06:06:18;;;;;;;15.67;13.30;;;-1.00;99.90;;;;;;5093682;28;20445;-64
2022/02/13 06:08:44;;;;;;;17.20;12.60;;;-0.90;99.90;;;;;;5092986;28;20565;-65
2022/02/13 06:11:12;;;;;;;16.10;12.73;;;-0.90;99.90;;;;;;5092484;28;20444;-64
2022/02/13 06:13:39;;;;;;;13.73;11.90;;;-0.80;99.90;;;;;;5092480;28;20987;-65
2022/02/13 06:16:07;;;;;;;18.60;13.20;;;-0.80;99.90;;;;;;5092387;28;20454;-64
2022/02/13 06:18:34;;;;;;;15.53;11.80;;;-0.80;99.90;;;;;;5091335;28;20498;-64
2022/02/13 06:21:01;;;;;;;15.13;11.53;;;-0.70;99.90;;;;;;5092260;28;20457;-64
2022/02/13 06:23:29;;;;;;;15.30;12.17;;;-0.70;99.90;;;;;;5091445;28;20434;-64
2022/02/13 06:25:57;;;;;;;16.80;13.80;;;-0.70;99.90;;;;;;5091813;28;20456;-64
2022/02/13 06:28:24;;;;;;;20.87;13.00;;;-0.80;99.90;;;;;;5091165;28;20525;-64
2022/02/13 06:30:51;;;;;;;16.17;13.40;;;-0.90;99.90;;;;;;5091636;28;20450;-64
2022/02/13 06:33:18;;;;;;;16.90;11.50;;;-0.90;99.90;;;;;;5091682;28;20565;-64
2022/02/13 06:35:45;;;;;;;12.43;9.83;;;-1.00;99.90;;;;;;5092167;28;20485;-65
2022/02/13 06:38:12;;;;;;;12.30;8.77;;;-1.10;99.90;;;;;;5091616;28;20486;-64
2022/02/13 06:40:42;;;;;;;12.07;9.40;;;-1.10;99.90;;;;;;5093548;28;21220;-64
2022/02/13 06:43:08;;;;;;;11.07;8.70;;;-1.10;99.90;;;;;;5096724;28;20446;-63
2022/02/13 06:45:36;;;;;;;13.00;9.90;;;-1.10;99.90;;;;;;5096549;28;20889;-64
2022/02/13 06:48:04;;;;;;;14.83;9.97;;;-1.10;99.90;;;;;;5096042;28;20446;-65
2022/02/13 06:50:31;;;;;;;15.97;9.60;;;-1.10;99.90;;;;;;5096386;28;20473;-64
2022/02/13 06:52:58;;;;;;;10.87;8.97;;;-1.00;99.90;;;;;;5095711;28;20465;-64
2022/02/13 06:55:25;;;;;;;12.47;10.60;;;-0.90;99.90;;;;;;5095705;28;20446;-65
2022/02/13 06:57:53;;;;;;;13.83;9.37;;;-0.90;99.90;;;;;;5095592;28;20557;-64
2022/02/13 07:00:21;;;;;;;13.47;8.67;;;-1.00;99.90;;;;;;5096598;28;20521;-64
2022/02/13 07:02:48;;;;;;;14.47;8.70;;;-1.00;99.90;;;;;;5096536;28;20528;-64
2022/02/13 07:05:16;;;;;;;9.90;8.90;;;-0.90;99.90;;;;;;5096972;28;20453;-64
2022/02/13 07:07:43;;;;;;;10.47;8.60;;;-1.00;99.90;;;;;;5096755;28;20959;-65
2022/02/13 07:10:13;;;;;;;11.73;8.90;;;-0.90;99.90;;;;;;5096707;28;20470;-65
2022/02/13 07:12:40;;;;;;;11.70;8.10;;;-0.90;99.90;;;;;;5096268;28;20450;-64
2022/02/13 07:15:10;;;;;;;12.57;9.73;;;-0.90;99.90;;;;;;5096239;28;20887;-64
2022/02/13 07:17:37;;;;;;;13.83;9.50;;;-0.80;99.90;;;;;;5096639;28;20452;-65
2022/02/13 07:20:05;;;;;;;12.40;8.27;;;-0.70;99.90;;;;;;5097085;28;21123;-65
2022/02/13 07:22:32;;;;;;;9.60;8.33;;;-0.60;99.90;;;;;;5096454;28;20510;-64
2022/02/13 07:24:59;;;;;;;10.80;9.10;;;-0.60;99.90;;;;;;5096480;28;20442;-64
2022/02/13 07:27:26;;;;;;;10.80;8.70;;;-0.50;99.90;;;;;;5096373;28;20438;-64
2022/02/13 07:29:53;;;;;;;16.77;11.03;;;-0.50;99.90;;;;;;5096487;28;20548;-65
2022/02/13 07:32:21;;;;;;;15.53;10.23;;;-0.40;99.90;;;;;;5097399;28;20452;-65
2022/02/13 07:34:48;;;;;;;13.17;9.00;;;-0.40;99.90;;;;;;5096802;28;20562;-64
2022/02/13 07:37:14;;;;;;;13.87;9.47;;;-0.30;99.90;;;;;;5096344;28;20457;-64
2022/02/13 07:39:41;;;;;;;13.83;9.40;;;-0.20;99.90;;;;;;5095397;28;20477;-64
2022/02/13 07:42:10;;;;;;;10.60;8.53;;;-0.10;99.90;;;;;;5095972;28;20442;-64
2022/02/13 07:44:38;;;;;;;10.23;8.20;;;0.00;99.90;;;;;;5096302;28;20446;-65
2022/02/13 07:47:06;;;;;;;12.90;8.70;;;0.10;99.90;;;;;;5095914;28;20549;-65
2022/02/13 07:49:34;;;;;;;12.37;9.00;;;0.20;99.90;;;;;;5095583;28;20548;-64
2022/02/13 07:52:01;;;;;;;9.50;8.10;;;0.30;99.90;;;;;;5095051;28;20485;-65
2022/02/13 07:54:29;;;;;;;16.03;9.53;;;0.40;99.90;;;;;;5095496;28;21010;-65
2022/02/13 07:56:56;;;;;;;10.77;8.80;;;0.50;99.90;;;;;;5095026;28;20837;-64
2022/02/13 07:59:23;;;;;;;14.80;8.33;;;0.60;99.90;;;;;;5095702;28;20470;-64
2022/02/13 08:01:49;;;;;;;12.10;9.27;;;0.70;99.90;;;;;;5095747;28;20533;-64
2022/02/13 08:04:16;;;;;;;11.83;10.03;;;0.90;99.90;;;;;;5095307;28;20442;-65
2022/02/13 08:06:45;;;;;;;16.80;9.43;;;1.00;99.90;;;;;;5095191;28;20955;-65
2022/02/13 08:09:13;;;;;;;10.50;7.83;;;1.10;99.90;;;;;;5094235;28;20470;-65
2022/02/13 08:11:40;;;;;;;8.83;7.63;;;1.30;99.90;;;;;;5094863;28;20924;-63
2022/02/13 08:14:07;;;;;;;9.43;8.30;;;1.50;99.90;;;;;;5094799;28;20509;-64
2022/02/13 08:16:34;;;;;;;9.33;7.77;;;1.80;99.90;;;;;;5094886;28;20469;-64
2022/02/13 08:19:00;;;;;;;11.03;8.77;;;2.20;99.90;;;;;;5094628;28;20995;-64
2022/02/13 08:21:27;;;;;;;10.13;8.63;;;2.50;99.90;;;;;;5094582;28;20944;-65
2022/02/13 08:23:55;;;;;;;9.33;7.27;;;2.90;99.90;;;;;;5094426;28;20525;-65
2022/02/13 08:26:22;;;;;;;10.50;8.73;;;3.30;99.90;;;;;;5094241;28;20454;-65
2022/02/13 08:28:51;;;;;;;11.30;9.30;;;3.60;99.90;;;;;;5093220;28;20481;-65
2022/02/13 08:31:19;;;;;;;11.10;8.83;;;3.80;99.90;;;;;;5092766;28;20457;-65
2022/02/13 08:33:47;;;;;;;14.37;10.70;;;4.10;99.90;;;;;;5092716;28;20480;-64
2022/02/13 08:36:15;;;;;;;14.07;10.83;;;4.20;99.90;;;;;;5093440;28;20480;-68
2022/02/13 08:38:42;;;;;;;15.83;12.00;;;4.40;99.90;;;;;;5091454;28;20914;-67
2022/02/13 08:41:10;;;;;;;10.20;9.20;;;4.50;99.90;;;;;;5091541;28;20502;-67
2022/02/13 08:43:37;;;;;;;10.17;8.90;;;4.70;99.90;;;;;;5092546;28;20555;-64
2022/02/13 08:46:04;;;;;;;10.73;8.77;;;4.90;99.90;;;;;;5093243;28;20456;-63
2022/02/13 08:48:31;;;;;;;10.30;9.17;;;5.10;99.90;;;;;;5089888;28;20469;-64
2022/02/13 08:50:58;;;;;;;12.87;9.50;;;5.20;99.90;;;;;;5094758;28;20445;-63
2022/02/13 08:53:25;;;;;;;11.80;9.47;;;5.40;99.90;;;;;;5088854;28;20469;-66
2022/02/13 08:55:51;;;;;;;11.60;8.70;;;5.60;99.90;;;;;;5092276;28;20464;-66
2022/02/13 08:58:20;;;;;;;11.23;9.47;;;5.70;99.90;;;;;;5095363;28;20454;-64
2022/02/13 09:00:47;;;;;;;13.80;8.90;;;5.90;99.90;;;;;;5095101;28;20453;-66
2022/02/13 09:03:14;;;;;;;10.03;8.03;;;6.00;99.90;;;;;;5094353;28;20830;-65
2022/02/13 09:05:40;;;;;;;10.07;9.00;;;6.20;99.90;;;;;;5091913;28;21106;-64
2022/02/13 09:08:08;;;;;;;10.30;8.27;;;6.40;99.90;;;;;;5092684;28;20466;-63
2022/02/13 09:10:36;;;;;;;10.90;8.27;;;6.60;99.90;;;;;;5092411;28;20493;-65
2022/02/13 09:13:02;;;;;;;9.10;7.97;;;6.70;99.90;;;;;;5094776;28;20458;-63
2022/02/13 09:15:31;;;;;;;15.30;9.30;;;6.80;99.90;;;;;;5095656;28;20557;-68
2022/02/13 09:17:58;;;;;;;10.93;8.13;;;7.00;99.90;;;;;;5090927;28;20503;-65
2022/02/13 09:20:25;;;;;;;13.70;8.27;;;7.20;99.90;;;;;;5092243;28;20446;-64
2022/02/13 09:22:52;;;;;;;9.57;7.30;;;7.40;99.90;;;;;;5094499;28;20532;-65
2022/02/13 09:25:19;;;;;;;8.90;6.53;;;7.60;99.90;;;;;;5093275;28;20934;-66
2022/02/13 09:27:46;;;;;;;8.57;6.37;;;7.90;99.90;;;;;;5091807;28;20433;-65
2022/02/13 09:30:13;;;;;;;8.53;5.63;;;8.10;99.90;;;;;;5093201;28;20856;-65
2022/02/13 09:32:42;;;;;;;7.70;5.70;;;8.40;99.90;;;;;;5091247;28;20450;-66
2022/02/13 09:35:10;;;;;;;10.33;6.80;;;8.50;99.90;;;;;;5090954;28;20569;-65
2022/02/13 09:37:36;;;;;;;9.30;5.93;;;8.70;99.90;;;;;;5083983;28;20965;-66
2022/02/13 09:40:04;;;;;;;8.40;6.40;;;8.90;99.90;;;;;;5086864;28;20887;-66
2022/02/13 09:42:32;;;;;;;8.90;6.33;;;9.10;99.90;;;;;;5085471;28;20533;-65
2022/02/13 09:44:59;;;;;;;7.33;6.50;;;9.30;99.90;;;;;;5091520;28;20756;-66
2022/02/13 09:47:26;;;;;;;9.83;6.60;;;9.60;99.90;;;;;;5091859;28;20453;-65
2022/02/13 09:49:54;;;;;;;7.47;6.27;;;9.80;99.90;;;;;;5091881;28;20542;-66
2022/02/13 09:52:21;;;;;;;7.00;6.10;;;9.90;99.90;;;;;;5090250;28;20461;-66
2022/02/13 09:54:48;;;;;;;9.00;6.47;;;10.20;99.90;;;;;;5087235;28;20504;-65
2022/02/13 10:00:01;;;;;;;10.53;6.50;;;10.20;99.90;;;;;;5085167;28;20503;-65
2022/02/13 10:02:33;;;;;;;8.43;6.37;;;10.70;99.90;;;;;;5077940;28;20442;-64
2022/02/13 10:05:02;;;;;;;8.23;6.87;;;11.10;99.90;;;;;;5080331;28;21199;-63
2022/02/13 10:07:32;;;;;;;8.77;6.73;;;11.30;99.90;;;;;;5087590;28;20816;-64
2022/02/13 10:09:59;;;;;;;10.57;6.50;;;11.60;99.90;;;;;;5082495;28;20458;-64
2022/02/13 10:12:39;;;;;;;8.50;7.20;;;11.70;99.90;;;;;;5080290;28;20534;-65
2022/02/13 10:15:30;;;;;;;7.90;6.40;;;12.00;99.90;;;;;;5087103;28;20481;-65
2022/02/13 10:17:59;;;;;;;7.73;6.93;;;11.80;99.90;;;;;;5080618;28;20477;-65
2022/02/13 10:20:29;;;;;;;11.20;6.80;;;11.80;99.90;;;;;;5081549;28;20861;-65
2022/02/13 10:22:56;;;;;;;8.80;6.60;;;11.80;99.90;;;;;;5090790;28;20438;-65
2022/02/13 10:25:23;;;;;;;6.40;5.77;;;11.90;99.70;;;;;;5090424;28;20438;-65
2022/02/13 10:27:50;;;;;;;9.47;6.70;;;12.20;99.70;;;;;;5090862;28;20529;-65
2022/02/13 10:30:37;;;;;;;8.00;6.43;;;12.40;99.20;;;;;;5090061;28;20468;-67
2022/02/13 10:33:26;;;;;;;8.60;6.47;;;12.70;99.90;;;;;;5089496;28;20478;-66
2022/02/13 10:36:08;;;;;;;9.83;6.97;;;12.80;99.20;;;;;;5086742;28;20478;-66
2022/02/13 10:38:37;;;;;;;11.27;6.83;;;12.80;98.40;;;;;;5090117;28;20501;-68
2022/02/13 10:41:15;;;;;;;8.30;6.30;;;13.10;98.30;;;;;;5097465;28;20469;-68
2022/02/13 10:44:02;;;;;;;13.37;6.33;;;13.40;97.10;;;;;;5093553;28;20879;-67
2022/02/13 10:46:33;;;;;;;9.43;7.70;;;13.70;97.50;;;;;;5091506;28;20483;-65
2022/02/13 10:49:00;;;;;;;9.97;6.70;;;14.10;96.40;;;;;;5090767;28;20541;-64
2022/02/13 10:51:29;;;;;;;7.67;6.83;;;14.20;95.90;;;;;;5090751;28;20971;-66
2022/02/13 10:53:56;;;;;;;11.13;7.37;;;14.30;95.80;;;;;;5090082;28;20454;-64
2022/02/13 10:56:23;;;;;;;11.57;7.30;;;14.70;96.10;;;;;;5089048;28;20468;-66
2022/02/13 10:58:55;;;;;;;8.50;6.43;;;14.90;94.90;;;;;;5087700;28;20458;-66
2022/02/13 11:01:23;;;;;;;7.87;6.90;;;15.20;94.60;;;;;;5090082;28;20825;-65
2022/02/13 11:03:52;;;;;;;8.03;7.03;;;15.60;93.90;;;;;;5089361;28;20441;-66
2022/02/13 11:06:20;;;;;;;11.23;6.70;;;15.90;93.40;;;;;;5090061;28;20804;-65
2022/02/13 11:08:55;;;;;;;11.20;8.30;;;16.30;92.70;;;;;;5090394;28;20454;-65
2022/02/13 11:11:23;;;;;;;8.00;6.60;;;16.70;91.80;;;;;;5090065;28;20437;-66
2022/02/13 11:13:50;;;;;;;11.47;7.70;;;17.10;91.20;;;;;;5089939;28;20473;-66
2022/02/13 11:16:35;;;;;;;10.53;7.90;;;17.50;90.00;;;;;;5089891;28;20505;-65
2022/02/13 11:19:05;;;;;;;8.40;6.73;;;17.70;88.70;;;;;;5089482;28;20458;-64
2022/02/13 11:21:33;;;;;;;9.60;6.47;;;17.60;88.80;;;;;;5089936;28;20446;-65
2022/02/13 11:24:03;;;;;;;8.57;6.40;;;17.90;88.10;;;;;;5089791;28;20446;-65
2022/02/13 11:26:42;;;;;;;8.60;7.00;;;18.20;87.60;;;;;;5090927;28;20446;-65
2022/02/13 11:29:11;;;;;;;10.50;7.30;;;18.40;84.10;;;;;;5092805;28;20507;-65
2022/02/13 11:31:40;;;;;;;8.97;6.30;;;18.70;85.50;;;;;;5093184;28;20446;-65
2022/02/13 11:34:09;;;;;;;11.57;6.73;;;18.80;84.10;;;;;;5093272;28;20803;-64
2022/02/13 11:36:50;;;;;;;9.10;6.17;;;18.90;80.90;;;;;;5093364;28;20441;-65
2022/02/13 11:39:38;;;;;;;8.00;6.10;;;18.80;82.10;;;;;;5092870;28;20836;-64
2022/02/13 11:42:11;;;;;;;10.30;7.70;;;18.40;79.90;;;;;;5093327;28;20536;-65
2022/02/13 11:44:51;;;;;;;9.57;6.77;;;17.30;84.20;;;;;;5093022;28;20932;-64
2022/02/13 11:47:21;;;;;;;10.20;7.00;;;16.50;83.30;;;;;;5093000;28;20525;-64
2022/02/13 11:50:27;;;;;;;8.57;6.40;;;16.90;86.10;;;;;;5092872;28;20465;-64
2022/02/13 11:53:07;;;;;;;9.73;5.93;;;17.70;83.70;;;;;;5093043;28;20474;-64
2022/02/13 11:55:37;;;;;;;10.83;6.40;;;18.60;82.00;;;;;;5092969;28;20485;-63
2022/02/13 11:58:08;;;;;;;16.70;6.47;;;18.90;79.30;;;;;;5092293;28;20548;-64
2022/02/13 12:00:54;;;;;;;8.23;6.53;;;19.10;78.40;;;;;;5093283;28;21253;-64
2022/02/13 12:03:24;;;;;;;6.93;6.07;;;19.50;78.60;;;;;;5092971;28;20472;-64
2022/02/13 12:06:21;;;;;;;9.40;6.33;;;19.90;77.00;;;;;;5093926;28;20462;-64
2022/02/13 12:08:48;;;;;;;9.93;7.03;;;20.00;76.10;;;;;;5086366;28;20476;-64
2022/02/13 12:11:18;;;;;;;8.43;6.73;;;19.50;76.10;;;;;;5093102;28;20450;-65
2022/02/13 12:13:45;;;;;;;7.73;6.07;;;18.40;76.70;;;;;;5093532;28;20499;-64
2022/02/13 12:16:12;;;;;;;11.30;7.57;;;16.90;79.50;;;;;;5092930;28;20482;-64
2022/02/13 12:18:39;;;;;;;8.20;5.37;;;15.80;81.90;;;;;;5092427;28;20901;-64
2022/02/13 12:21:08;;;;;;;9.03;6.27;;;14.80;83.50;;;;;;5092708;28;20461;-64
2022/02/13 12:23:36;;;;;;;11.30;6.07;;;14.20;87.80;;;;;;5092463;28;20511;-63
2022/02/13 12:26:03;;;;;;;9.00;6.07;;;13.70;90.10;;;;;;5092452;28;20796;-64
2022/02/13 12:28:33;;;;;;;11.40;6.37;;;13.40;90.00;;;;;;5091879;28;20470;-63
2022/02/13 12:31:03;;;;;;;6.63;5.73;;;13.20;90.60;;;;;;5092217;28;20442;-64
2022/02/13 12:33:31;;;;;;;5.37;4.53;;;13.10;90.10;;;;;;5091815;28;20541;-64
2022/02/13 12:35:59;;;;;;;5.70;3.70;;;13.00;88.80;;;;;;5091945;28;20535;-64
2022/02/13 12:38:28;;;;;;;5.83;4.00;;;12.90;90.10;;;;;;5091106;28;20468;-64
2022/02/13 12:40:57;;;;;;;7.17;3.50;;;13.00;88.70;;;;;;5092074;28;20489;-63
2022/02/13 12:43:24;;;;;;;5.77;4.60;;;13.10;89.80;;;;;;5092119;28;20442;-63